Time;durP1;ratioP1;P1;durP2;ratioP2;P2;SDS_P1;SDS_P2;PMS_P1;PMS_P2;Temp;Humidity;BMP_temperature;BMP_pressure;BME280_temperature;BME280_humidity;BME280_pressure;Samples;Min_cycle;Max_cycle;Signal;HPM_P1;HPM_P2
2022/01/30 00:01:15;;;;;;;0.10;0.10;;;;;;;;;;5054739;28;20652;-68
2022/01/30 00:03:42;;;;;;;0.10;0.10;;;;;;;;;;5060701;28;21198;-67
2022/01/30 00:06:09;;;;;;;0.10;0.10;;;;;;;;;;5053160;28;20735;-67
2022/01/30 00:08:37;;;;;;;0.10;0.10;;;;;;;;;;5057625;28;20625;-66
2022/01/30 00:11:12;;;;;;;0.10;0.10;;;;;;;;;;5054105;28;20636;-68
2022/01/30 00:13:39;;;;;;;0.10;0.10;;;;;;;;;;5051308;28;20617;-67
2022/01/30 00:16:10;;;;;;;0.10;0.10;;;;;;;;;;5050928;28;20630;-68
2022/01/30 00:18:54;;;;;;;0.10;0.10;;;;;;;;;;5050111;28;20636;-68
2022/01/30 00:21:33;;;;;;;0.10;0.10;;;;;;;;;;5050235;28;20753;-66
2022/01/30 00:24:04;;;;;;;0.10;0.10;;;;;;;;;;5040451;28;20733;-67
2022/01/30 00:26:34;;;;;;;0.00;0.00;;;;;;;;;;5052687;28;20656;-67
2022/01/30 00:29:02;;;;;;;0.00;0.00;;;;;;;;;;5056138;28;20609;-67
2022/01/30 00:31:32;;;;;;;0.10;0.10;;;;;;;;;;5068615;28;20629;-68
2022/01/30 00:33:59;;;;;;;0.00;0.00;;;;;;;;;;5049545;28;20629;-68
2022/01/30 00:36:27;;;;;;;0.10;0.10;;;;;;;;;;5059186;28;20660;-68
2022/01/30 00:38:55;;;;;;;0.10;0.10;;;;;;;;;;5058799;28;20612;-67
2022/01/30 00:41:22;;;;;;;0.10;0.10;;;;;;;;;;5052202;28;20751;-67
2022/01/30 00:43:49;;;;;;;0.00;0.00;;;;;;;;;;5043197;28;20730;-67
2022/01/30 00:46:17;;;;;;;0.10;0.10;;;;;;;;;;5049838;28;20659;-68
2022/01/30 00:48:45;;;;;;;0.10;0.10;;;;;;;;;;5050615;28;20621;-67
2022/01/30 00:51:13;;;;;;;0.10;0.10;;;;;;;;;;5058366;28;21268;-67
2022/01/30 00:53:40;;;;;;;0.10;0.10;;;;;;;;;;5054336;28;20758;-68
2022/01/30 00:56:08;;;;;;;0.00;0.00;;;;;;;;;;5058141;28;20696;-67
2022/01/30 00:58:35;;;;;;;0.10;0.10;;;;;;;;;;5062150;28;20630;-68
2022/01/30 01:01:02;;;;;;;0.10;0.10;;;;;;;;;;5054019;28;20648;-68
2022/01/30 01:03:29;;;;;;;0.10;0.10;;;;;;;;;;5064664;28;20635;-69
2022/01/30 01:06:02;;;;;;;0.10;0.10;;;;;;;;;;5057304;28;20618;-69
2022/01/30 01:08:34;;;;;;;0.10;0.10;;;;;;;;;;5057281;28;20624;-69
2022/01/30 01:11:15;;;;;;;0.10;0.10;;;;;;;;;;5056744;28;20622;-68
2022/01/30 01:14:08;;;;;;;0.10;0.10;;;;;;;;;;5061128;28;20648;-68
2022/01/30 01:24:53;;;;;;;0.10;0.10;;;;;;;;;;5055667;28;20621;-69
2022/01/30 01:27:20;;;;;;;0.10;0.10;;;;;;;;;;5062366;28;20653;-67
2022/01/30 01:29:47;;;;;;;0.10;0.10;;;;;;;;;;5050125;28;20621;-68
2022/01/30 01:32:14;;;;;;;0.10;0.10;;;;;;;;;;5057836;28;20626;-68
2022/01/30 01:34:42;;;;;;;0.00;0.00;;;;;;;;;;5063334;28;20624;-67
2022/01/30 01:37:12;;;;;;;0.10;0.10;;;;;;;;;;5059455;28;20653;-69
2022/01/30 01:39:39;;;;;;;0.10;0.10;;;;;;;;;;5056859;28;20617;-69
2022/01/30 01:42:06;;;;;;;0.10;0.10;;;;;;;;;;5060007;28;20645;-68
2022/01/30 01:44:40;;;;;;;0.10;0.10;;;;;;;;;;5057424;28;20620;-67
2022/01/30 01:47:10;;;;;;;0.10;0.10;;;;;;;;;;5060405;28;20660;-68
2022/01/30 01:49:38;;;;;;;0.10;0.10;;;;;;;;;;5060545;28;20713;-68
2022/01/30 01:52:19;;;;;;;0.10;0.10;;;;;;;;;;5060830;28;20712;-69
2022/01/30 01:54:49;;;;;;;0.10;0.10;;;;;;;;;;5054803;28;20660;-68
2022/01/30 01:57:17;;;;;;;0.10;0.10;;;;;;;;;;5060938;28;20770;-68
2022/01/30 01:59:49;;;;;;;0.10;0.10;;;;;;;;;;5052040;28;20625;-68
2022/01/30 02:02:39;;;;;;;0.10;0.10;;;;;;;;;;5065892;28;20590;-68
2022/01/30 02:05:07;;;;;;;0.00;0.00;;;;;;;;;;5055428;28;20729;-69
2022/01/30 02:10:25;;;;;;;0.10;0.10;;;;;;;;;;5051636;28;20613;-70
2022/01/30 02:12:55;;;;;;;0.10;0.10;;;;;;;;;;5056913;28;20636;-68
2022/01/30 02:15:34;;;;;;;0.10;0.10;;;;;;;;;;5051061;28;20643;-67
2022/01/30 02:26:27;;;;;;;0.10;0.10;;;;;;;;;;4994427;28;20757;-68
2022/01/30 02:28:55;;;;;;;0.00;0.00;;;;;;;;;;5041987;28;20643;-69
2022/01/30 02:31:23;;;;;;;0.10;0.10;;;;;;;;;;5054080;28;20605;-67
2022/01/30 02:33:51;;;;;;;0.10;0.10;;;;;;;;;;5060596;28;20635;-68
2022/01/30 02:36:19;;;;;;;0.10;0.10;;;;;;;;;;5053297;28;20748;-69
2022/01/30 02:38:48;;;;;;;0.10;0.10;;;;;;;;;;5054151;28;20625;-67
2022/01/30 02:41:15;;;;;;;0.10;0.10;;;;;;;;;;5054523;28;20658;-69
2022/01/30 02:44:04;;;;;;;0.10;0.10;;;;;;;;;;5043278;28;20631;-67
2022/01/30 02:46:34;;;;;;;0.10;0.10;;;;;;;;;;5044781;28;20664;-68
2022/01/30 02:49:13;;;;;;;0.10;0.10;;;;;;;;;;5049178;28;20621;-67
2022/01/30 02:51:47;;;;;;;0.10;0.10;;;;;;;;;;5046478;28;20633;-68
2022/01/30 02:54:16;;;;;;;0.10;0.10;;;;;;;;;;5048326;28;21187;-67
2022/01/30 02:56:44;;;;;;;0.10;0.10;;;;;;;;;;5050136;28;21311;-69
2022/01/30 02:59:12;;;;;;;0.10;0.10;;;;;;;;;;5055436;28;20671;-68
2022/01/30 03:01:39;;;;;;;0.10;0.10;;;;;;;;;;5045592;28;20781;-68
2022/01/30 03:04:07;;;;;;;0.10;0.10;;;;;;;;;;5054149;28;20657;-67
2022/01/30 03:06:35;;;;;;;0.10;0.10;;;;;;;;;;5059170;28;20691;-69
2022/01/30 03:09:02;;;;;;;0.10;0.10;;;;;;;;;;5055391;28;20629;-66
2022/01/30 03:11:31;;;;;;;0.10;0.10;;;;;;;;;;5044508;28;20678;-70
2022/01/30 03:13:59;;;;;;;0.10;0.10;;;;;;;;;;5053836;28;20613;-68
2022/01/30 03:16:26;;;;;;;0.10;0.10;;;;;;;;;;5053932;28;20748;-70
2022/01/30 03:18:54;;;;;;;0.10;0.10;;;;;;;;;;5039720;28;20625;-67
2022/01/30 03:21:22;;;;;;;0.10;0.10;;;;;;;;;;5059331;28;21133;-69
2022/01/30 03:23:49;;;;;;;0.10;0.10;;;;;;;;;;5051425;28;20629;-70
2022/01/30 03:26:16;;;;;;;0.10;0.10;;;;;;;;;;5053514;28;20783;-70
2022/01/30 03:29:05;;;;;;;0.10;0.10;;;;;;;;;;5056194;28;20710;-66
2022/01/30 03:31:38;;;;;;;0.10;0.10;;;;;;;;;;5043916;28;20621;-68
2022/01/30 03:34:07;;;;;;;0.10;0.10;;;;;;;;;;5053646;28;20635;-69
2022/01/30 03:36:44;;;;;;;0.10;0.10;;;;;;;;;;5051801;28;20645;-68
2022/01/30 03:39:12;;;;;;;0.10;0.10;;;;;;;;;;5048194;28;20626;-68
2022/01/30 03:41:39;;;;;;;0.10;0.10;;;;;;;;;;5038937;28;20688;-69
2022/01/30 03:44:11;;;;;;;0.10;0.10;;;;;;;;;;5043012;28;20622;-68
2022/01/30 03:46:38;;;;;;;0.10;0.10;;;;;;;;;;5056847;28;20781;-69
2022/01/30 03:49:06;;;;;;;0.10;0.10;;;;;;;;;;5038784;28;20733;-68
2022/01/30 03:51:40;;;;;;;0.10;0.10;;;;;;;;;;5050887;28;20646;-69
2022/01/30 03:54:20;;;;;;;0.10;0.10;;;;;;;;;;5046932;28;20636;-69
2022/01/30 03:56:48;;;;;;;0.10;0.10;;;;;;;;;;5051635;28;20641;-68
2022/01/30 03:59:17;;;;;;;0.10;0.10;;;;;;;;;;5056140;28;20767;-69
2022/01/30 04:01:44;;;;;;;0.10;0.10;;;;;;;;;;5046782;28;20649;-70
2022/01/30 04:04:11;;;;;;;0.10;0.10;;;;;;;;;;5055366;28;20628;-70
2022/01/30 04:06:39;;;;;;;0.10;0.10;;;;;;;;;;5050702;28;20755;-69
2022/01/30 04:09:26;;;;;;;0.10;0.10;;;;;;;;;;5053483;28;20609;-68
2022/01/30 04:12:11;;;;;;;0.10;0.10;;;;;;;;;;5052824;28;20687;-68
2022/01/30 04:15:06;;;;;;;0.10;0.10;;;;;;;;;;5054489;28;20629;-69
2022/01/30 04:17:52;;;;;;;0.10;0.10;;;;;;;;;;5049109;28;20632;-69
2022/01/30 04:20:35;;;;;;;0.10;0.10;;;;;;;;;;5054819;28;20709;-67
2022/01/30 04:23:20;;;;;;;0.10;0.10;;;;;;;;;;5041236;28;20624;-68
2022/01/30 04:26:10;;;;;;;0.10;0.10;;;;;;;;;;5050372;28;20705;-68
2022/01/30 04:29:00;;;;;;;0.10;0.10;;;;;;;;;;5051357;28;20628;-69
2022/01/30 04:31:39;;;;;;;0.10;0.10;;;;;;;;;;5050472;28;20621;-67
2022/01/30 04:34:09;;;;;;;0.10;0.10;;;;;;;;;;5060317;28;20629;-69
2022/01/30 04:37:01;;;;;;;0.10;0.10;;;;;;;;;;5053643;28;20707;-69
2022/01/30 04:40:16;;;;;;;0.10;0.10;;;;;;;;;;5046532;28;20684;-68
2022/01/30 04:52:32;;;;;;;0.10;0.10;;;;;;;;;;5054375;28;20608;-68
2022/01/30 04:55:57;;;;;;;0.10;0.10;;;;;;;;;;5044556;28;20625;-68
2022/01/30 04:58:28;;;;;;;0.10;0.10;;;;;;;;;;5051714;28;20613;-68
2022/01/30 05:01:10;;;;;;;0.10;0.10;;;;;;;;;;5053726;28;20625;-68
2022/01/30 05:04:03;;;;;;;0.10;0.10;;;;;;;;;;5051887;28;20620;-68
2022/01/30 05:07:26;;;;;;;0.10;0.10;;;;;;;;;;5032287;28;20687;-67
2022/01/30 05:10:03;;;;;;;0.10;0.10;;;;;;;;;;5058072;28;20624;-68
2022/01/30 05:12:54;;;;;;;0.00;0.00;;;;;;;;;;5049464;28;20701;-68
2022/01/30 05:15:46;;;;;;;0.10;0.10;;;;;;;;;;5065840;28;20723;-68
2022/01/30 05:18:18;;;;;;;0.10;0.10;;;;;;;;;;5053311;28;20645;-68
2022/01/30 05:21:03;;;;;;;0.10;0.10;;;;;;;;;;5061829;28;20638;-68
2022/01/30 05:23:42;;;;;;;0.10;0.10;;;;;;;;;;5050882;28;21221;-69
2022/01/30 05:26:22;;;;;;;0.10;0.10;;;;;;;;;;5059544;28;20648;-69
2022/01/30 05:29:08;;;;;;;0.10;0.10;;;;;;;;;;5061522;28;20625;-69
2022/01/30 05:32:05;;;;;;;0.10;0.10;;;;;;;;;;5047550;28;20625;-69
2022/01/30 05:34:54;;;;;;;0.10;0.10;;;;;;;;;;5059875;28;20634;-69
2022/01/30 05:37:37;;;;;;;0.10;0.10;;;;;;;;;;5054330;28;20700;-68
2022/01/30 05:40:25;;;;;;;0.10;0.10;;;;;;;;;;5040636;28;20613;-67
2022/01/30 05:43:05;;;;;;;0.10;0.10;;;;;;;;;;5054679;28;20664;-68
2022/01/30 05:45:38;;;;;;;0.10;0.10;;;;;;;;;;5044522;28;20645;-68
2022/01/30 05:48:18;;;;;;;0.10;0.10;;;;;;;;;;5055863;28;20725;-69
2022/01/30 05:50:56;;;;;;;0.10;0.10;;;;;;;;;;5059254;28;20636;-68
2022/01/30 05:53:28;;;;;;;0.10;0.10;;;;;;;;;;5046265;28;20629;-67
2022/01/30 05:56:09;;;;;;;0.10;0.10;;;;;;;;;;5052064;28;20637;-68
2022/01/30 05:58:36;;;;;;;0.10;0.10;;;;;;;;;;5062741;28;20653;-68
2022/01/30 06:01:17;;;;;;;0.10;0.10;;;;;;;;;;5051926;28;20617;-69
2022/01/30 06:03:45;;;;;;;0.10;0.10;;;;;;;;;;5061339;28;20650;-69
2022/01/30 06:06:13;;;;;;;0.10;0.10;;;;;;;;;;5057386;28;20657;-67
2022/01/30 06:08:46;;;;;;;0.10;0.10;;;;;;;;;;5047481;28;21056;-69
2022/01/30 06:11:15;;;;;;;0.10;0.10;;;;;;;;;;5052984;28;20629;-68
2022/01/30 06:13:42;;;;;;;0.10;0.10;;;;;;;;;;5063992;28;20628;-68
2022/01/30 06:16:10;;;;;;;0.10;0.10;;;;;;;;;;5047118;28;20687;-66
2022/01/30 06:18:38;;;;;;;0.10;0.10;;;;;;;;;;5046315;28;20617;-67
2022/01/30 06:21:08;;;;;;;0.10;0.10;;;;;;;;;;5060744;28;20626;-69
2022/01/30 06:23:54;;;;;;;0.10;0.10;;;;;;;;;;5043974;28;20613;-69
2022/01/30 06:26:35;;;;;;;0.10;0.10;;;;;;;;;;5045349;28;20652;-69
2022/01/30 06:29:25;;;;;;;0.10;0.10;;;;;;;;;;5039765;28;20979;-68
2022/01/30 06:32:11;;;;;;;0.10;0.10;;;;;;;;;;5052967;28;20744;-69
2022/01/30 06:34:48;;;;;;;0.10;0.10;;;;;;;;;;5046459;28;20632;-67
2022/01/30 06:37:34;;;;;;;0.10;0.10;;;;;;;;;;5053112;28;20663;-66
2022/01/30 06:40:12;;;;;;;0.13;0.13;;;;;;;;;;5055997;28;20634;-69
2022/01/30 06:42:50;;;;;;;0.10;0.10;;;;;;;;;;5054909;28;20701;-68
2022/01/30 06:45:36;;;;;;;0.10;0.10;;;;;;;;;;5047500;28;20596;-68
2022/01/30 06:48:27;;;;;;;0.10;0.10;;;;;;;;;;5050228;28;20695;-68
2022/01/30 06:51:26;;;;;;;0.10;0.10;;;;;;;;;;5039789;28;20619;-69
2022/01/30 06:54:12;;;;;;;0.10;0.10;;;;;;;;;;5053794;28;21257;-67
2022/01/30 06:56:58;;;;;;;0.10;0.10;;;;;;;;;;5053829;28;20639;-68
2022/01/30 06:59:46;;;;;;;0.10;0.10;;;;;;;;;;5043441;28;20620;-68
2022/01/30 07:02:32;;;;;;;0.10;0.10;;;;;;;;;;5049786;28;20628;-68
2022/01/30 07:05:19;;;;;;;0.10;0.10;;;;;;;;;;5043893;28;21046;-68
2022/01/30 07:07:50;;;;;;;0.10;0.10;;;;;;;;;;5056780;28;20676;-68
2022/01/30 07:10:18;;;;;;;0.10;0.10;;;;;;;;;;5059082;28;20608;-69
2022/01/30 07:12:45;;;;;;;0.10;0.10;;;;;;;;;;5039758;28;20702;-67
2022/01/30 07:15:14;;;;;;;0.10;0.10;;;;;;;;;;5054980;28;20652;-69
2022/01/30 07:17:41;;;;;;;0.10;0.10;;;;;;;;;;5041395;28;20721;-70
2022/01/30 07:20:09;;;;;;;0.10;0.10;;;;;;;;;;5053385;28;20653;-69
2022/01/30 07:22:36;;;;;;;0.10;0.10;;;;;;;;;;5055513;28;20651;-68
2022/01/30 07:25:05;;;;;;;0.10;0.10;;;;;;;;;;5053900;28;20609;-68
2022/01/30 07:27:32;;;;;;;0.10;0.10;;;;;;;;;;5047720;28;20663;-69
2022/01/30 07:30:00;;;;;;;0.10;0.10;;;;;;;;;;5045465;28;20630;-69
2022/01/30 07:32:28;;;;;;;0.10;0.10;;;;;;;;;;5047390;28;20618;-68
2022/01/30 07:34:56;;;;;;;0.10;0.10;;;;;;;;;;5045137;28;20637;-68
2022/01/30 07:37:26;;;;;;;0.10;0.10;;;;;;;;;;5045508;28;21300;-68
2022/01/30 07:39:54;;;;;;;0.10;0.10;;;;;;;;;;5059093;28;20627;-68
2022/01/30 07:42:21;;;;;;;0.10;0.10;;;;;;;;;;5056135;28;20653;-66
2022/01/30 07:44:53;;;;;;;0.10;0.10;;;;;;;;;;5038497;28;20639;-69
2022/01/30 07:47:21;;;;;;;0.10;0.10;;;;;;;;;;5046428;28;20654;-68
2022/01/30 07:49:51;;;;;;;0.10;0.10;;;;;;;;;;5044396;28;21190;-68
2022/01/30 07:52:19;;;;;;;0.10;0.10;;;;;;;;;;5054821;28;20621;-69
2022/01/30 07:54:47;;;;;;;0.10;0.10;;;;;;;;;;5040080;28;20645;-69
2022/01/30 07:57:15;;;;;;;0.10;0.10;;;;;;;;;;5040345;28;20668;-69
2022/01/30 07:59:42;;;;;;;0.10;0.10;;;;;;;;;;5060671;28;20601;-70
2022/01/30 08:02:09;;;;;;;0.10;0.10;;;;;;;;;;5053789;28;20656;-69
2022/01/30 08:04:37;;;;;;;0.10;0.10;;;;;;;;;;5047817;28;20635;-70
2022/01/30 08:07:07;;;;;;;0.10;0.10;;;;;;;;;;5058059;28;20702;-68
2022/01/30 08:09:34;;;;;;;0.10;0.10;;;;;;;;;;5051604;28;20617;-70
2022/01/30 08:12:01;;;;;;;0.10;0.10;;;;;;;;;;5058019;28;20695;-70
2022/01/30 08:14:29;;;;;;;0.10;0.10;;;;;;;;;;5052113;28;20716;-67
2022/01/30 08:16:56;;;;;;;0.10;0.10;;;;;;;;;;5048657;28;20669;-67
2022/01/30 08:19:24;;;;;;;0.10;0.10;;;;;;;;;;5047487;28;20616;-69
2022/01/30 08:21:52;;;;;;;0.10;0.10;;;;;;;;;;5045330;28;20621;-69
2022/01/30 08:24:23;;;;;;;0.10;0.10;;;;;;;;;;5050286;28;20622;-69
2022/01/30 08:26:51;;;;;;;0.10;0.10;;;;;;;;;;5055847;28;20769;-69
2022/01/30 08:29:18;;;;;;;0.10;0.10;;;;;;;;;;5055945;28;21206;-69
2022/01/30 08:31:46;;;;;;;0.10;0.10;;;;;;;;;;5044482;28;20656;-68
2022/01/30 08:34:13;;;;;;;0.10;0.10;;;;;;;;;;5044544;28;20652;-68
2022/01/30 08:36:40;;;;;;;0.10;0.10;;;;;;;;;;5039615;28;20749;-69
2022/01/30 08:39:07;;;;;;;0.10;0.10;;;;;;;;;;5041854;28;20679;-69
2022/01/30 08:41:36;;;;;;;0.10;0.10;;;;;;;;;;5043906;28;20635;-69
2022/01/30 08:44:03;;;;;;;0.10;0.10;;;;;;;;;;5044635;28;20653;-68
2022/01/30 08:46:31;;;;;;;0.10;0.10;;;;;;;;;;5048355;28;20707;-68
2022/01/30 08:48:58;;;;;;;0.10;0.10;;;;;;;;;;5049155;28;20606;-69
2022/01/30 08:51:26;;;;;;;0.10;0.10;;;;;;;;;;5051576;28;20625;-70
2022/01/30 08:53:53;;;;;;;0.10;0.10;;;;;;;;;;5046537;28;20656;-67
2022/01/30 08:56:21;;;;;;;0.20;0.20;;;;;;;;;;5040422;28;20649;-68
2022/01/30 08:58:50;;;;;;;0.10;0.10;;;;;;;;;;5044407;28;20630;-70
2022/01/30 09:01:17;;;;;;;0.10;0.10;;;;;;;;;;5047404;28;20616;-70
2022/01/30 09:03:45;;;;;;;0.10;0.10;;;;;;;;;;5043925;28;20646;-69
2022/01/30 09:06:12;;;;;;;0.10;0.10;;;;;;;;;;5051154;28;20730;-68
2022/01/30 09:08:39;;;;;;;0.10;0.10;;;;;;;;;;5055913;28;20669;-69
2022/01/30 09:11:06;;;;;;;0.10;0.10;;;;;;;;;;5046844;28;20622;-67
2022/01/30 09:13:34;;;;;;;0.10;0.10;;;;;;;;;;5060113;28;20619;-69
2022/01/30 09:16:03;;;;;;;0.10;0.10;;;;;;;;;;5057094;28;20621;-67
2022/01/30 09:18:30;;;;;;;0.10;0.10;;;;;;;;;;5036094;28;20639;-67
2022/01/30 09:20:58;;;;;;;0.10;0.10;;;;;;;;;;5045983;28;20629;-68
2022/01/30 09:23:25;;;;;;;0.10;0.10;;;;;;;;;;5049248;28;20644;-68
2022/01/30 09:25:52;;;;;;;0.10;0.10;;;;;;;;;;5045362;28;20645;-69
2022/01/30 09:28:19;;;;;;;0.10;0.10;;;;;;;;;;5052310;28;20622;-67
2022/01/30 09:30:47;;;;;;;0.10;0.10;;;;;;;;;;5044080;28;20620;-68
2022/01/30 09:33:15;;;;;;;0.20;0.20;;;;;;;;;;5043953;28;21235;-68
2022/01/30 09:35:43;;;;;;;0.10;0.10;;;;;;;;;;5036007;28;20638;-69
2022/01/30 09:38:10;;;;;;;0.10;0.10;;;;;;;;;;5044349;28;20661;-68
2022/01/30 09:40:38;;;;;;;0.10;0.10;;;;;;;;;;5052310;28;20601;-68
2022/01/30 09:43:06;;;;;;;0.10;0.10;;;;;;;;;;5052868;28;20726;-68
2022/01/30 09:45:33;;;;;;;0.10;0.10;;;;;;;;;;5049340;28;20616;-69
2022/01/30 09:48:01;;;;;;;0.10;0.10;;;;;;;;;;5055575;28;20657;-69
2022/01/30 09:50:30;;;;;;;0.10;0.10;;;;;;;;;;5054580;28;20628;-68
2022/01/30 09:52:57;;;;;;;0.10;0.10;;;;;;;;;;5051395;28;20629;-68
2022/01/30 09:55:26;;;;;;;0.10;0.10;;;;;;;;;;5045909;28;20620;-69
2022/01/30 09:57:53;;;;;;;0.10;0.10;;;;;;;;;;5039077;28;20698;-69
2022/01/30 10:00:21;;;;;;;0.10;0.10;;;;;;;;;;5047677;28;20663;-68
2022/01/30 10:02:48;;;;;;;0.10;0.10;;;;;;;;;;5043222;28;21242;-69
2022/01/30 10:05:16;;;;;;;0.10;0.10;;;;;;;;;;5044347;28;20609;-67
2022/01/30 10:07:49;;;;;;;0.10;0.10;;;;;;;;;;5047159;28;20633;-67
2022/01/30 10:10:19;;;;;;;0.10;0.10;;;;;;;;;;5044528;28;21025;-67
2022/01/30 10:13:08;;;;;;;0.10;0.10;;;;;;;;;;5039866;28;21559;-69
2022/01/30 10:15:50;;;;;;;0.10;0.10;;;;;;;;;;5033329;28;20631;-69
2022/01/30 10:18:18;;;;;;;0.10;0.10;;;;;;;;;;5043490;28;20725;-67
2022/01/30 10:20:47;;;;;;;0.10;0.10;;;;;;;;;;5042274;28;20671;-70
2022/01/30 10:23:16;;;;;;;0.10;0.10;;;;;;;;;;5038125;28;20685;-67
2022/01/30 10:25:51;;;;;;;0.10;0.10;;;;;;;;;;5036491;28;20680;-69
2022/01/30 10:28:20;;;;;;;0.10;0.10;;;;;;;;;;5041191;28;20704;-69
2022/01/30 10:30:48;;;;;;;0.00;0.00;;;;;;;;;;5041886;28;20623;-67
2022/01/30 10:33:16;;;;;;;0.10;0.10;;;;;;;;;;5041936;28;20625;-69
2022/01/30 10:35:54;;;;;;;0.10;0.10;;;;;;;;;;5042592;28;20626;-68
2022/01/30 10:38:23;;;;;;;0.10;0.10;;;;;;;;;;5044478;28;20617;-68
2022/01/30 10:40:55;;;;;;;0.10;0.10;;;;;;;;;;5038935;28;20627;-69
2022/01/30 10:43:23;;;;;;;0.10;0.10;;;;;;;;;;5047389;28;20718;-68
2022/01/30 11:09:13;;;;;;;0.10;0.10;;;;;;;;;;5092201;27;20790;-66
2022/01/30 11:11:45;;;;;;;0.10;0.10;;;;;;;;;;5082432;28;20694;-66
2022/01/30 11:14:19;;;;;;;0.10;0.10;;;;;;;;;;5078452;28;20640;-69
2022/01/30 11:17:02;;;;;;;0.10;0.10;;;;;;;;;;5054400;28;20635;-70
2022/01/30 11:19:31;;;;;;;0.10;0.10;;;;;;;;;;5060035;28;20643;-69
2022/01/30 11:22:00;;;;;;;0.10;0.10;;;;;;;;;;5058367;28;20613;-67
2022/01/30 11:24:28;;;;;;;0.10;0.10;;;;;;;;;;5067017;28;20657;-66
2022/01/30 11:26:56;;;;;;;0.10;0.10;;;;;;;;;;5059440;28;20669;-70
2022/01/30 11:31:07;;;;;;;0.10;0.10;;;;;;;;;;5080622;27;20739;-70
2022/01/30 11:33:35;;;;;;;0.10;0.10;;;;;;;;;;5063715;28;20604;-68
2022/01/30 11:36:03;;;;;;;0.10;0.10;;;;;;;;;;5064350;28;20642;-68
2022/01/30 11:38:30;;;;;;;0.10;0.10;;;;;;;;;;5059154;28;20703;-69
2022/01/30 11:41:11;;;;;;;0.20;0.20;;;;;;;;;;5070753;28;20625;-69
2022/01/30 11:43:39;;;;;;;0.10;0.10;;;;;;;;;;5072563;28;20675;-68
2022/01/30 11:46:16;;;;;;;0.10;0.10;;;;;;;;;;5068623;28;20632;-67
2022/01/30 11:48:44;;;;;;;0.10;0.10;;;;;;;;;;5070403;28;20658;-67
2022/01/30 11:51:12;;;;;;;0.10;0.10;;;;;;;;;;5067639;28;20679;-67
2022/01/30 11:53:40;;;;;;;0.10;0.10;;;;;;;;;;5066010;28;20664;-69
2022/01/30 11:56:08;;;;;;;0.10;0.10;;;;;;;;;;5070621;28;20608;-70
2022/01/30 11:58:55;;;;;;;0.10;0.10;;;;;;;;;;5062766;28;20621;-71
2022/01/30 12:02:18;;;;;;;0.10;0.10;;;;;;;;;;5093240;27;20795;-67
2022/01/30 12:04:54;;;;;;;0.10;0.10;;;;;;;;;;5055704;28;20755;-69
2022/01/30 12:07:35;;;;;;;0.10;0.10;;;;;;;;;;5081847;28;20666;-67
2022/01/30 12:10:21;;;;;;;0.10;0.10;;;;;;;;;;5072753;28;20615;-67
2022/01/30 12:12:50;;;;;;;0.10;0.10;;;;;;;;;;5069181;28;20604;-70
2022/01/30 12:15:36;;;;;;;0.10;0.10;;;;;;;;;;5086497;28;20716;-70
2022/01/30 12:18:06;;;;;;;0.10;0.10;;;;;;;;;;5082255;28;20689;-68
2022/01/30 12:20:35;;;;;;;0.10;0.10;;;;;;;;;;5090671;28;20654;-67
2022/01/30 12:23:03;;;;;;;0.20;0.20;;;;;;;;;;5066641;28;20692;-66
2022/01/30 12:25:34;;;;;;;0.10;0.10;;;;;;;;;;5077346;28;20655;-69
2022/01/30 12:28:03;;;;;;;0.10;0.10;;;;;;;;;;5087937;28;20607;-70
2022/01/30 12:30:36;;;;;;;0.10;0.10;;;;;;;;;;5069737;28;20618;-67
2022/01/30 12:33:20;;;;;;;0.10;0.10;;;;;;;;;;5066552;28;20625;-67
2022/01/30 12:35:49;;;;;;;0.10;0.10;;;;;;;;;;5071579;28;21254;-68
2022/01/30 12:38:16;;;;;;;0.10;0.10;;;;;;;;;;5072187;28;20702;-67
2022/01/30 12:40:47;;;;;;;0.10;0.10;;;;;;;;;;5096896;28;20651;-67
2022/01/30 12:43:15;;;;;;;0.10;0.10;;;;;;;;;;5088437;28;20668;-67
2022/01/30 12:45:42;;;;;;;0.00;0.00;;;;;;;;;;5060206;28;20721;-67
2022/01/30 12:48:10;;;;;;;0.10;0.10;;;;;;;;;;5082443;28;20622;-67
2022/01/30 12:50:38;;;;;;;0.10;0.10;;;;;;;;;;5065019;28;21016;-68
2022/01/30 12:53:07;;;;;;;0.10;0.10;;;;;;;;;;5064765;28;21005;-68
2022/01/30 12:55:34;;;;;;;0.00;0.00;;;;;;;;;;5064425;28;20651;-67
2022/01/30 12:58:02;;;;;;;0.10;0.10;;;;;;;;;;5089273;28;20627;-67
2022/01/30 13:00:29;;;;;;;0.10;0.10;;;;;;;;;;5081334;28;20658;-67
2022/01/30 13:02:57;;;;;;;0.10;0.10;;;;;;;;;;5079717;28;20665;-67
2022/01/30 13:05:24;;;;;;;0.07;0.07;;;;;;;;;;5071844;28;20722;-68
2022/01/30 13:07:53;;;;;;;0.10;0.10;;;;;;;;;;5074908;28;20681;-67
2022/01/30 13:10:22;;;;;;;0.10;0.10;;;;;;;;;;5086046;28;20604;-67
2022/01/30 13:12:50;;;;;;;0.10;0.10;;;;;;;;;;5067301;28;20625;-67
2022/01/30 13:15:18;;;;;;;0.10;0.10;;;;;;;;;;5082193;28;20644;-67
2022/01/30 13:17:46;;;;;;;0.10;0.10;;;;;;;;;;5070298;28;20637;-67
2022/01/30 13:20:14;;;;;;;0.10;0.10;;;;;;;;;;5069368;28;20669;-67
2022/01/30 13:22:43;;;;;;;0.10;0.10;;;;;;;;;;5055209;28;20622;-67
2022/01/30 13:25:13;;;;;;;0.10;0.10;;;;;;;;;;5070747;28;20636;-67
2022/01/30 13:27:43;;;;;;;0.10;0.10;;;;;;;;;;5050009;28;20623;-67
2022/01/30 13:30:11;;;;;;;0.10;0.10;;;;;;;;;;5055118;28;20629;-67
2022/01/30 13:32:39;;;;;;;0.10;0.10;;;;;;;;;;5060357;28;20628;-67
2022/01/30 13:35:12;;;;;;;0.10;0.10;;;;;;;;;;5076402;28;20644;-67
2022/01/30 13:37:39;;;;;;;0.10;0.10;;;;;;;;;;5053049;28;20635;-67
2022/01/30 13:40:13;;;;;;;0.10;0.10;;;;;;;;;;5061375;28;20621;-67
2022/01/30 13:42:50;;;;;;;0.10;0.10;;;;;;;;;;5055878;28;20615;-67
2022/01/30 13:48:04;;;;;;;0.13;0.13;;;;;;;;;;5072011;28;20604;-67
2022/01/30 13:50:34;;;;;;;0.20;0.20;;;;;;;;;;5071307;28;20604;-67
2022/01/30 13:53:02;;;;;;;0.10;0.10;;;;;;;;;;5063120;28;20627;-67
2022/01/30 13:55:29;;;;;;;0.10;0.10;;;;;;;;;;5061749;28;21080;-67
2022/01/30 13:57:59;;;;;;;0.10;0.10;;;;;;;;;;5061883;28;20650;-67
2022/01/30 14:00:29;;;;;;;0.10;0.10;;;;;;;;;;5073797;28;21380;-67
2022/01/30 14:02:57;;;;;;;0.10;0.10;;;;;;;;;;5062152;28;20663;-67
2022/01/30 14:05:25;;;;;;;0.10;0.10;;;;;;;;;;5067876;28;20655;-67
2022/01/30 14:07:52;;;;;;;0.10;0.10;;;;;;;;;;5053462;28;20626;-67
2022/01/30 14:10:21;;;;;;;0.00;0.00;;;;;;;;;;5068655;28;20640;-68
2022/01/30 14:12:50;;;;;;;0.00;0.00;;;;;;;;;;5070659;28;20632;-68
2022/01/30 14:15:21;;;;;;;0.10;0.10;;;;;;;;;;5079722;28;20652;-68
2022/01/30 14:18:03;;;;;;;0.10;0.10;;;;;;;;;;5065841;28;20643;-67
2022/01/30 14:20:32;;;;;;;0.10;0.10;;;;;;;;;;5056864;28;20628;-67
2022/01/30 14:23:04;;;;;;;0.10;0.10;;;;;;;;;;5053868;28;20723;-67
2022/01/30 14:25:31;;;;;;;0.10;0.10;;;;;;;;;;5060201;28;21235;-67
2022/01/30 14:27:59;;;;;;;0.10;0.10;;;;;;;;;;5072854;28;20609;-67
2022/01/30 14:30:37;;;;;;;0.10;0.10;;;;;;;;;;5063124;28;20608;-67
2022/01/30 14:33:05;;;;;;;0.10;0.10;;;;;;;;;;5072201;28;20631;-67
2022/01/30 15:39:49;;;;;;;0.10;0.10;;;;;;;;;;5131964;27;20904;-64
2022/01/30 15:42:16;;;;;;;0.10;0.10;;;;;;;;;;5151742;27;20617;-66
